sensor_id;sensor_type;location;lat;lon;timestamp;temperature;humidity
52787;DHT22;38661;53.152;5.846;2023-04-24T00:01:48;11.30;93.50
52787;DHT22;38661;53.152;5.846;2023-04-24T00:04:14;11.40;93.50
52787;DHT22;38661;53.152;5.846;2023-04-24T00:06:42;11.40;93.80
52787;DHT22;38661;53.152;5.846;2023-04-24T00:09:09;11.40;93.70
52787;DHT22;38661;53.152;5.846;2023-04-24T00:11:37;11.40;93.60
52787;DHT22;38661;53.152;5.846;2023-04-24T00:14:03;11.40;93.60
52787;DHT22;38661;53.152;5.846;2023-04-24T00:16:29;11.40;93.60
52787;DHT22;38661;53.152;5.846;2023-04-24T00:18:55;11.40;93.70
52787;DHT22;38661;53.152;5.846;2023-04-24T00:21:21;11.40;93.80
52787;DHT22;38661;53.152;5.846;2023-04-24T00:23:47;11.40;93.80
52787;DHT22;38661;53.152;5.846;2023-04-24T00:26:13;11.40;93.70
52787;DHT22;38661;53.152;5.846;2023-04-24T00:28:39;11.40;93.80
52787;DHT22;38661;53.152;5.846;2023-04-24T00:31:05;11.40;93.70
52787;DHT22;38661;53.152;5.846;2023-04-24T00:33:30;11.40;93.80
52787;DHT22;38661;53.152;5.846;2023-04-24T00:35:56;11.40;93.80
52787;DHT22;38661;53.152;5.846;2023-04-24T00:38:22;11.40;93.60
52787;DHT22;38661;53.152;5.846;2023-04-24T00:40:48;11.40;93.80
52787;DHT22;38661;53.152;5.846;2023-04-24T00:43:16;11.40;93.90
52787;DHT22;38661;53.152;5.846;2023-04-24T00:45:41;11.40;94.00
52787;DHT22;38661;53.152;5.846;2023-04-24T00:48:08;11.40;94.00
52787;DHT22;38661;53.152;5.846;2023-04-24T00:50:36;11.30;94.00
52787;DHT22;38661;53.152;5.846;2023-04-24T00:53:01;11.30;93.90
52787;DHT22;38661;53.152;5.846;2023-04-24T00:55:27;11.30;94.10
52787;DHT22;38661;53.152;5.846;2023-04-24T00:57:53;11.30;94.20
52787;DHT22;38661;53.152;5.846;2023-04-24T01:00:19;11.30;94.30
52787;DHT22;38661;53.152;5.846;2023-04-24T01:02:45;11.30;94.30
52787;DHT22;38661;53.152;5.846;2023-04-24T01:05:15;11.30;94.20
52787;DHT22;38661;53.152;5.846;2023-04-24T01:07:41;11.30;94.10
52787;DHT22;38661;53.152;5.846;2023-04-24T01:10:11;11.20;94.30
52787;DHT22;38661;53.152;5.846;2023-04-24T01:12:38;11.20;94.30
52787;DHT22;38661;53.152;5.846;2023-04-24T01:15:04;11.20;94.20
52787;DHT22;38661;53.152;5.846;2023-04-24T01:17:32;11.30;94.30
52787;DHT22;38661;53.152;5.846;2023-04-24T01:19:58;11.30;94.20
52787;DHT22;38661;53.152;5.846;2023-04-24T01:22:25;11.20;94.10
52787;DHT22;38661;53.152;5.846;2023-04-24T01:24:52;11.30;94.10
52787;DHT22;38661;53.152;5.846;2023-04-24T01:27:19;11.20;94.10
52787;DHT22;38661;53.152;5.846;2023-04-24T01:29:45;11.20;94.10
52787;DHT22;38661;53.152;5.846;2023-04-24T01:32:11;11.20;94.00
52787;DHT22;38661;53.152;5.846;2023-04-24T01:34:37;11.20;94.00
52787;DHT22;38661;53.152;5.846;2023-04-24T01:37:03;11.10;94.10
52787;DHT22;38661;53.152;5.846;2023-04-24T01:39:30;11.20;94.10
52787;DHT22;38661;53.152;5.846;2023-04-24T01:41:56;11.10;94.20
52787;DHT22;38661;53.152;5.846;2023-04-24T01:44:23;11.10;94.20
52787;DHT22;38661;53.152;5.846;2023-04-24T01:46:48;11.10;94.20
52787;DHT22;38661;53.152;5.846;2023-04-24T01:49:14;11.10;94.30
52787;DHT22;38661;53.152;5.846;2023-04-24T01:51:40;11.10;94.40
52787;DHT22;38661;53.152;5.846;2023-04-24T01:54:06;11.10;94.50
52787;DHT22;38661;53.152;5.846;2023-04-24T01:56:34;11.10;94.50
52787;DHT22;38661;53.152;5.846;2023-04-24T01:59:03;11.10;94.60
52787;DHT22;38661;53.152;5.846;2023-04-24T02:01:34;11.10;94.50
52787;DHT22;38661;53.152;5.846;2023-04-24T02:04:01;11.10;94.50
52787;DHT22;38661;53.152;5.846;2023-04-24T02:06:27;11.10;94.30
52787;DHT22;38661;53.152;5.846;2023-04-24T02:08:53;11.10;94.50
52787;DHT22;38661;53.152;5.846;2023-04-24T02:11:18;11.10;94.60
52787;DHT22;38661;53.152;5.846;2023-04-24T02:13:44;11.10;94.30
52787;DHT22;38661;53.152;5.846;2023-04-24T02:16:10;11.10;94.50
52787;DHT22;38661;53.152;5.846;2023-04-24T02:18:36;11.10;94.50
52787;DHT22;38661;53.152;5.846;2023-04-24T02:21:02;11.10;94.90
52787;DHT22;38661;53.152;5.846;2023-04-24T02:23:27;11.00;94.90
52787;DHT22;38661;53.152;5.846;2023-04-24T02:25:53;11.00;94.80
52787;DHT22;38661;53.152;5.846;2023-04-24T02:28:19;11.00;95.20
52787;DHT22;38661;53.152;5.846;2023-04-24T02:30:45;11.00;95.60
52787;DHT22;38661;53.152;5.846;2023-04-24T02:33:11;11.00;95.50
52787;DHT22;38661;53.152;5.846;2023-04-24T02:35:37;11.00;95.50
52787;DHT22;38661;53.152;5.846;2023-04-24T02:38:03;11.00;95.10
52787;DHT22;38661;53.152;5.846;2023-04-24T02:40:29;11.00;94.90
52787;DHT22;38661;53.152;5.846;2023-04-24T02:42:55;11.10;94.10
52787;DHT22;38661;53.152;5.846;2023-04-24T02:45:21;11.10;93.70
52787;DHT22;38661;53.152;5.846;2023-04-24T02:47:46;11.00;93.80
52787;DHT22;38661;53.152;5.846;2023-04-24T02:50:12;10.90;93.80
52787;DHT22;38661;53.152;5.846;2023-04-24T02:52:38;10.80;93.90
52787;DHT22;38661;53.152;5.846;2023-04-24T02:55:04;10.90;94.00
52787;DHT22;38661;53.152;5.846;2023-04-24T02:57:30;10.80;93.90
52787;DHT22;38661;53.152;5.846;2023-04-24T02:59:55;10.80;93.90
52787;DHT22;38661;53.152;5.846;2023-04-24T03:02:21;10.80;93.80
52787;DHT22;38661;53.152;5.846;2023-04-24T03:04:47;10.80;93.80
52787;DHT22;38661;53.152;5.846;2023-04-24T03:07:13;10.80;93.60
52787;DHT22;38661;53.152;5.846;2023-04-24T03:09:40;10.70;93.60
52787;DHT22;38661;53.152;5.846;2023-04-24T03:12:06;10.70;93.80
52787;DHT22;38661;53.152;5.846;2023-04-24T03:14:32;10.70;93.80
52787;DHT22;38661;53.152;5.846;2023-04-24T03:16:58;10.60;93.90
52787;DHT22;38661;53.152;5.846;2023-04-24T03:19:23;10.60;94.00
52787;DHT22;38661;53.152;5.846;2023-04-24T03:21:49;10.60;94.00
52787;DHT22;38661;53.152;5.846;2023-04-24T03:24:15;10.60;94.10
52787;DHT22;38661;53.152;5.846;2023-04-24T03:26:41;10.60;94.20
52787;DHT22;38661;53.152;5.846;2023-04-24T03:29:07;10.60;94.10
52787;DHT22;38661;53.152;5.846;2023-04-24T03:31:32;10.50;94.10
52787;DHT22;38661;53.152;5.846;2023-04-24T03:33:58;10.50;94.20
52787;DHT22;38661;53.152;5.846;2023-04-24T03:36:24;10.50;94.30
52787;DHT22;38661;53.152;5.846;2023-04-24T03:38:51;10.50;94.40
52787;DHT22;38661;53.152;5.846;2023-04-24T03:41:17;10.50;94.50
52787;DHT22;38661;53.152;5.846;2023-04-24T03:43:42;10.50;94.40
52787;DHT22;38661;53.152;5.846;2023-04-24T03:46:08;10.50;94.50
52787;DHT22;38661;53.152;5.846;2023-04-24T03:48:35;10.50;94.70
52787;DHT22;38661;53.152;5.846;2023-04-24T03:51:00;10.60;94.60
52787;DHT22;38661;53.152;5.846;2023-04-24T03:53:26;10.60;94.20
52787;DHT22;38661;53.152;5.846;2023-04-24T03:55:53;10.50;94.10
52787;DHT22;38661;53.152;5.846;2023-04-24T03:58:18;10.50;94.20
52787;DHT22;38661;53.152;5.846;2023-04-24T04:00:44;10.50;94.30
52787;DHT22;38661;53.152;5.846;2023-04-24T04:03:12;10.50;94.20
52787;DHT22;38661;53.152;5.846;2023-04-24T04:05:39;10.50;93.90
52787;DHT22;38661;53.152;5.846;2023-04-24T04:08:05;10.40;94.00
52787;DHT22;38661;53.152;5.846;2023-04-24T04:10:30;10.40;94.10
52787;DHT22;38661;53.152;5.846;2023-04-24T04:12:56;10.40;94.10
52787;DHT22;38661;53.152;5.846;2023-04-24T04:15:22;10.30;94.10
52787;DHT22;38661;53.152;5.846;2023-04-24T04:17:47;10.40;94.10
52787;DHT22;38661;53.152;5.846;2023-04-24T04:20:13;10.30;93.90
52787;DHT22;38661;53.152;5.846;2023-04-24T04:22:39;10.30;93.90
52787;DHT22;38661;53.152;5.846;2023-04-24T04:25:05;10.30;94.00
52787;DHT22;38661;53.152;5.846;2023-04-24T04:27:32;10.30;93.70
52787;DHT22;38661;53.152;5.846;2023-04-24T04:30:02;10.20;93.80
52787;DHT22;38661;53.152;5.846;2023-04-24T04:32:33;10.20;93.70
52787;DHT22;38661;53.152;5.846;2023-04-24T04:35:00;10.20;94.10
52787;DHT22;38661;53.152;5.846;2023-04-24T04:37:33;10.20;93.90
52787;DHT22;38661;53.152;5.846;2023-04-24T04:39:59;10.20;94.00
52787;DHT22;38661;53.152;5.846;2023-04-24T04:42:26;10.20;94.10
52787;DHT22;38661;53.152;5.846;2023-04-24T04:44:52;10.20;94.10
52787;DHT22;38661;53.152;5.846;2023-04-24T04:47:20;10.20;94.20
52787;DHT22;38661;53.152;5.846;2023-04-24T04:49:48;10.20;94.20
52787;DHT22;38661;53.152;5.846;2023-04-24T04:52:13;10.20;94.20
52787;DHT22;38661;53.152;5.846;2023-04-24T04:54:39;10.20;94.10
52787;DHT22;38661;53.152;5.846;2023-04-24T04:57:05;10.20;94.10
52787;DHT22;38661;53.152;5.846;2023-04-24T04:59:31;10.10;94.10
52787;DHT22;38661;53.152;5.846;2023-04-24T05:01:57;10.20;94.10
52787;DHT22;38661;53.152;5.846;2023-04-24T05:04:22;10.20;94.10
52787;DHT22;38661;53.152;5.846;2023-04-24T05:06:48;10.10;94.10
52787;DHT22;38661;53.152;5.846;2023-04-24T05:09:16;10.10;94.20
52787;DHT22;38661;53.152;5.846;2023-04-24T05:11:42;10.10;94.20
52787;DHT22;38661;53.152;5.846;2023-04-24T05:14:07;10.20;94.20
52787;DHT22;38661;53.152;5.846;2023-04-24T05:16:33;10.10;94.10
52787;DHT22;38661;53.152;5.846;2023-04-24T05:18:59;10.10;94.00
52787;DHT22;38661;53.152;5.846;2023-04-24T05:21:25;10.20;94.00
52787;DHT22;38661;53.152;5.846;2023-04-24T05:23:50;10.20;93.80
52787;DHT22;38661;53.152;5.846;2023-04-24T05:26:16;10.10;93.60
52787;DHT22;38661;53.152;5.846;2023-04-24T05:28:43;10.10;93.60
52787;DHT22;38661;53.152;5.846;2023-04-24T05:31:08;10.10;93.60
52787;DHT22;38661;53.152;5.846;2023-04-24T05:33:34;10.10;93.50
52787;DHT22;38661;53.152;5.846;2023-04-24T05:36:00;10.10;93.40
52787;DHT22;38661;53.152;5.846;2023-04-24T05:38:26;10.10;93.30
52787;DHT22;38661;53.152;5.846;2023-04-24T05:40:51;10.10;93.30
52787;DHT22;38661;53.152;5.846;2023-04-24T05:43:17;10.10;93.00
52787;DHT22;38661;53.152;5.846;2023-04-24T05:45:43;10.10;93.10
52787;DHT22;38661;53.152;5.846;2023-04-24T05:48:08;10.10;93.10
52787;DHT22;38661;53.152;5.846;2023-04-24T05:50:34;10.00;93.20
52787;DHT22;38661;53.152;5.846;2023-04-24T05:53:00;10.00;93.20
52787;DHT22;38661;53.152;5.846;2023-04-24T05:55:27;10.10;93.00
52787;DHT22;38661;53.152;5.846;2023-04-24T05:57:53;10.00;92.90
52787;DHT22;38661;53.152;5.846;2023-04-24T06:00:19;10.00;93.00
52787;DHT22;38661;53.152;5.846;2023-04-24T06:02:46;10.00;93.20
52787;DHT22;38661;53.152;5.846;2023-04-24T06:05:12;10.00;93.20
52787;DHT22;38661;53.152;5.846;2023-04-24T06:07:38;10.00;93.20
52787;DHT22;38661;53.152;5.846;2023-04-24T06:10:04;10.00;93.20
52787;DHT22;38661;53.152;5.846;2023-04-24T06:12:30;10.00;93.20
52787;DHT22;38661;53.152;5.846;2023-04-24T06:14:56;10.00;93.20
52787;DHT22;38661;53.152;5.846;2023-04-24T06:17:22;10.00;93.20
52787;DHT22;38661;53.152;5.846;2023-04-24T06:19:47;10.00;93.20
52787;DHT22;38661;53.152;5.846;2023-04-24T06:22:13;10.00;93.20
52787;DHT22;38661;53.152;5.846;2023-04-24T06:24:42;10.00;93.20
52787;DHT22;38661;53.152;5.846;2023-04-24T06:27:08;10.00;93.10
52787;DHT22;38661;53.152;5.846;2023-04-24T06:29:34;10.00;93.10
52787;DHT22;38661;53.152;5.846;2023-04-24T06:31:59;10.00;93.20
52787;DHT22;38661;53.152;5.846;2023-04-24T06:34:25;10.00;93.00
52787;DHT22;38661;53.152;5.846;2023-04-24T06:36:51;10.00;93.00
52787;DHT22;38661;53.152;5.846;2023-04-24T06:39:16;10.00;92.80
52787;DHT22;38661;53.152;5.846;2023-04-24T06:41:42;9.90;92.60
52787;DHT22;38661;53.152;5.846;2023-04-24T06:44:08;9.90;92.70
52787;DHT22;38661;53.152;5.846;2023-04-24T06:46:34;9.90;92.30
52787;DHT22;38661;53.152;5.846;2023-04-24T06:49:00;9.80;92.50
52787;DHT22;38661;53.152;5.846;2023-04-24T06:51:26;9.80;92.30
52787;DHT22;38661;53.152;5.846;2023-04-24T06:53:55;9.70;92.40
52787;DHT22;38661;53.152;5.846;2023-04-24T06:56:22;9.70;92.70
52787;DHT22;38661;53.152;5.846;2023-04-24T06:58:48;9.60;92.60
52787;DHT22;38661;53.152;5.846;2023-04-24T07:01:14;9.60;92.70
52787;DHT22;38661;53.152;5.846;2023-04-24T07:03:39;9.70;92.60
52787;DHT22;38661;53.152;5.846;2023-04-24T07:06:05;9.60;92.40
52787;DHT22;38661;53.152;5.846;2023-04-24T07:08:31;9.60;92.40
52787;DHT22;38661;53.152;5.846;2023-04-24T07:10:58;9.60;92.20
52787;DHT22;38661;53.152;5.846;2023-04-24T07:13:25;9.60;91.90
52787;DHT22;38661;53.152;5.846;2023-04-24T07:15:50;9.60;92.00
52787;DHT22;38661;53.152;5.846;2023-04-24T07:18:18;9.60;91.80
52787;DHT22;38661;53.152;5.846;2023-04-24T07:20:44;9.60;91.50
52787;DHT22;38661;53.152;5.846;2023-04-24T07:23:10;9.60;91.30
52787;DHT22;38661;53.152;5.846;2023-04-24T07:25:36;9.60;91.10
52787;DHT22;38661;53.152;5.846;2023-04-24T07:28:02;9.60;90.80
52787;DHT22;38661;53.152;5.846;2023-04-24T07:30:27;9.50;90.90
52787;DHT22;38661;53.152;5.846;2023-04-24T07:32:58;9.50;91.00
52787;DHT22;38661;53.152;5.846;2023-04-24T07:35:24;9.50;90.90
52787;DHT22;38661;53.152;5.846;2023-04-24T07:37:52;9.50;91.00
52787;DHT22;38661;53.152;5.846;2023-04-24T07:40:18;9.50;90.80
52787;DHT22;38661;53.152;5.846;2023-04-24T07:42:44;9.50;90.50
52787;DHT22;38661;53.152;5.846;2023-04-24T07:45:10;9.50;90.50
52787;DHT22;38661;53.152;5.846;2023-04-24T07:47:36;9.50;90.50
52787;DHT22;38661;53.152;5.846;2023-04-24T07:50:03;9.50;90.20
52787;DHT22;38661;53.152;5.846;2023-04-24T07:52:29;9.50;89.80
52787;DHT22;38661;53.152;5.846;2023-04-24T07:54:55;9.60;89.30
52787;DHT22;38661;53.152;5.846;2023-04-24T07:57:25;9.50;89.50
52787;DHT22;38661;53.152;5.846;2023-04-24T07:59:51;9.60;89.20
52787;DHT22;38661;53.152;5.846;2023-04-24T08:02:17;9.50;89.40
52787;DHT22;38661;53.152;5.846;2023-04-24T08:04:46;9.60;89.30
52787;DHT22;38661;53.152;5.846;2023-04-24T08:07:14;9.70;89.30
52787;DHT22;38661;53.152;5.846;2023-04-24T08:09:40;9.70;89.30
52787;DHT22;38661;53.152;5.846;2023-04-24T08:12:06;9.80;89.20
52787;DHT22;38661;53.152;5.846;2023-04-24T08:14:31;9.80;89.00
52787;DHT22;38661;53.152;5.846;2023-04-24T08:16:59;9.90;89.10
52787;DHT22;38661;53.152;5.846;2023-04-24T08:19:26;10.00;88.70
52787;DHT22;38661;53.152;5.846;2023-04-24T08:21:52;10.00;88.30
52787;DHT22;38661;53.152;5.846;2023-04-24T08:24:18;10.10;88.00
52787;DHT22;38661;53.152;5.846;2023-04-24T08:26:43;10.00;87.90
52787;DHT22;38661;53.152;5.846;2023-04-24T08:29:09;10.00;88.00
52787;DHT22;38661;53.152;5.846;2023-04-24T08:31:35;10.00;87.70
52787;DHT22;38661;53.152;5.846;2023-04-24T08:34:01;9.90;87.50
52787;DHT22;38661;53.152;5.846;2023-04-24T08:36:30;10.00;87.50
52787;DHT22;38661;53.152;5.846;2023-04-24T08:38:56;9.90;87.60
52787;DHT22;38661;53.152;5.846;2023-04-24T08:41:21;10.00;87.20
52787;DHT22;38661;53.152;5.846;2023-04-24T08:43:50;10.00;86.60
52787;DHT22;38661;53.152;5.846;2023-04-24T08:46:16;10.00;86.20
52787;DHT22;38661;53.152;5.846;2023-04-24T08:48:44;10.10;85.30
52787;DHT22;38661;53.152;5.846;2023-04-24T08:51:10;10.10;85.00
52787;DHT22;38661;53.152;5.846;2023-04-24T08:53:37;10.10;84.50
52787;DHT22;38661;53.152;5.846;2023-04-24T08:56:03;10.10;83.80
52787;DHT22;38661;53.152;5.846;2023-04-24T08:58:31;10.20;84.10
52787;DHT22;38661;53.152;5.846;2023-04-24T09:00:57;10.30;84.50
52787;DHT22;38661;53.152;5.846;2023-04-24T09:03:24;10.30;83.70
52787;DHT22;38661;53.152;5.846;2023-04-24T09:05:52;10.40;83.30
52787;DHT22;38661;53.152;5.846;2023-04-24T09:08:19;10.50;83.50
52787;DHT22;38661;53.152;5.846;2023-04-24T09:10:46;10.60;82.90
52787;DHT22;38661;53.152;5.846;2023-04-24T09:13:12;10.60;82.50
52787;DHT22;38661;53.152;5.846;2023-04-24T09:15:39;10.80;81.90
52787;DHT22;38661;53.152;5.846;2023-04-24T09:18:05;10.80;81.60
52787;DHT22;38661;53.152;5.846;2023-04-24T09:20:32;10.80;81.50
52787;DHT22;38661;53.152;5.846;2023-04-24T09:22:58;10.80;81.10
52787;DHT22;38661;53.152;5.846;2023-04-24T09:25:34;10.70;81.10
52787;DHT22;38661;53.152;5.846;2023-04-24T09:28:05;10.60;81.60
52787;DHT22;38661;53.152;5.846;2023-04-24T09:30:32;10.50;81.50
52787;DHT22;38661;53.152;5.846;2023-04-24T09:33:14;10.50;80.80
52787;DHT22;38661;53.152;5.846;2023-04-24T09:35:50;10.50;81.10
52787;DHT22;38661;53.152;5.846;2023-04-24T09:38:16;10.50;80.60
52787;DHT22;38661;53.152;5.846;2023-04-24T09:40:42;10.50;80.80
52787;DHT22;38661;53.152;5.846;2023-04-24T09:43:10;10.40;81.10
52787;DHT22;38661;53.152;5.846;2023-04-24T09:45:38;10.40;81.70
52787;DHT22;38661;53.152;5.846;2023-04-24T09:48:05;10.40;81.90
52787;DHT22;38661;53.152;5.846;2023-04-24T09:50:32;10.40;80.20
52787;DHT22;38661;53.152;5.846;2023-04-24T09:52:59;10.40;80.00
52787;DHT22;38661;53.152;5.846;2023-04-24T09:55:27;10.40;80.10
52787;DHT22;38661;53.152;5.846;2023-04-24T09:58:00;10.30;80.40
52787;DHT22;38661;53.152;5.846;2023-04-24T10:00:33;10.30;81.20
52787;DHT22;38661;53.152;5.846;2023-04-24T10:03:04;10.30;81.60
52787;DHT22;38661;53.152;5.846;2023-04-24T10:05:33;10.30;81.70
52787;DHT22;38661;53.152;5.846;2023-04-24T10:08:10;10.30;81.40
52787;DHT22;38661;53.152;5.846;2023-04-24T10:10:39;10.20;81.60
52787;DHT22;38661;53.152;5.846;2023-04-24T10:13:07;10.30;82.10
52787;DHT22;38661;53.152;5.846;2023-04-24T10:15:38;10.30;82.70
52787;DHT22;38661;53.152;5.846;2023-04-24T10:18:06;10.30;80.90
52787;DHT22;38661;53.152;5.846;2023-04-24T10:20:33;10.30;80.80
52787;DHT22;38661;53.152;5.846;2023-04-24T10:23:00;10.40;81.20
52787;DHT22;38661;53.152;5.846;2023-04-24T10:25:27;10.50;81.00
52787;DHT22;38661;53.152;5.846;2023-04-24T10:27:54;10.50;80.00
52787;DHT22;38661;53.152;5.846;2023-04-24T10:30:29;10.50;79.80
52787;DHT22;38661;53.152;5.846;2023-04-24T10:32:55;10.60;80.50
52787;DHT22;38661;53.152;5.846;2023-04-24T10:35:22;10.60;79.20
52787;DHT22;38661;53.152;5.846;2023-04-24T10:40:26;10.60;79.30
52787;DHT22;38661;53.152;5.846;2023-04-24T10:42:53;10.70;79.50
52787;DHT22;38661;53.152;5.846;2023-04-24T10:45:20;10.70;78.60
52787;DHT22;38661;53.152;5.846;2023-04-24T10:48:00;10.70;77.70
52787;DHT22;38661;53.152;5.846;2023-04-24T10:50:28;10.70;78.10
52787;DHT22;38661;53.152;5.846;2023-04-24T10:53:06;10.60;79.30
52787;DHT22;38661;53.152;5.846;2023-04-24T10:58:41;10.50;79.90
52787;DHT22;38661;53.152;5.846;2023-04-24T11:01:27;10.50;80.60
52787;DHT22;38661;53.152;5.846;2023-04-24T11:03:58;10.30;79.90
52787;DHT22;38661;53.152;5.846;2023-04-24T11:06:37;10.20;79.80
52787;DHT22;38661;53.152;5.846;2023-04-24T11:09:08;10.10;80.70
52787;DHT22;38661;53.152;5.846;2023-04-24T11:11:36;10.10;81.50
52787;DHT22;38661;53.152;5.846;2023-04-24T11:14:04;10.00;82.40
52787;DHT22;38661;53.152;5.846;2023-04-24T11:16:44;9.80;83.10
52787;DHT22;38661;53.152;5.846;2023-04-24T11:21:46;9.90;84.10
52787;DHT22;38661;53.152;5.846;2023-04-24T11:32:29;10.00;82.70
52787;DHT22;38661;53.152;5.846;2023-04-24T11:34:58;10.10;81.40
52787;DHT22;38661;53.152;5.846;2023-04-24T11:37:26;10.20;79.20
52787;DHT22;38661;53.152;5.846;2023-04-24T11:39:57;10.20;78.40
52787;DHT22;38661;53.152;5.846;2023-04-24T11:42:23;10.30;78.50
52787;DHT22;38661;53.152;5.846;2023-04-24T11:44:52;10.30;78.70
52787;DHT22;38661;53.152;5.846;2023-04-24T11:47:18;10.30;79.10
52787;DHT22;38661;53.152;5.846;2023-04-24T11:49:44;10.40;80.10
52787;DHT22;38661;53.152;5.846;2023-04-24T11:52:10;10.50;80.30
52787;DHT22;38661;53.152;5.846;2023-04-24T11:54:36;10.50;80.50
52787;DHT22;38661;53.152;5.846;2023-04-24T11:57:05;10.50;79.80
52787;DHT22;38661;53.152;5.846;2023-04-24T11:59:36;10.50;79.50
52787;DHT22;38661;53.152;5.846;2023-04-24T12:02:02;10.40;80.20
52787;DHT22;38661;53.152;5.846;2023-04-24T12:04:41;10.50;81.00
52787;DHT22;38661;53.152;5.846;2023-04-24T12:07:07;10.50;80.40
52787;DHT22;38661;53.152;5.846;2023-04-24T12:10:00;10.80;79.10
52787;DHT22;38661;53.152;5.846;2023-04-24T12:12:27;11.20;77.30
52787;DHT22;38661;53.152;5.846;2023-04-24T12:14:57;11.10;76.20
52787;DHT22;38661;53.152;5.846;2023-04-24T12:17:30;11.10;76.50
52787;DHT22;38661;53.152;5.846;2023-04-24T12:20:02;11.10;76.10
52787;DHT22;38661;53.152;5.846;2023-04-24T12:25:10;11.10;75.60
52787;DHT22;38661;53.152;5.846;2023-04-24T12:27:36;11.20;76.00
52787;DHT22;38661;53.152;5.846;2023-04-24T12:30:04;11.20;74.80
52787;DHT22;38661;53.152;5.846;2023-04-24T12:32:30;11.20;75.40
52787;DHT22;38661;53.152;5.846;2023-04-24T12:34:57;11.20;73.90
52787;DHT22;38661;53.152;5.846;2023-04-24T12:37:24;11.10;74.40
52787;DHT22;38661;53.152;5.846;2023-04-24T12:40:08;11.00;74.70
52787;DHT22;38661;53.152;5.846;2023-04-24T12:42:34;11.00;75.00
52787;DHT22;38661;53.152;5.846;2023-04-24T12:45:05;11.00;74.80
52787;DHT22;38661;53.152;5.846;2023-04-24T12:47:34;11.10;74.60
52787;DHT22;38661;53.152;5.846;2023-04-24T12:50:01;11.20;74.50
52787;DHT22;38661;53.152;5.846;2023-04-24T12:52:29;11.30;75.00
52787;DHT22;38661;53.152;5.846;2023-04-24T12:55:00;11.40;74.80
52787;DHT22;38661;53.152;5.846;2023-04-24T12:57:27;11.30;75.10
52787;DHT22;38661;53.152;5.846;2023-04-24T12:59:58;11.30;75.90
52787;DHT22;38661;53.152;5.846;2023-04-24T13:02:25;11.20;76.00
52787;DHT22;38661;53.152;5.846;2023-04-24T13:04:52;11.00;75.70
52787;DHT22;38661;53.152;5.846;2023-04-24T13:07:18;10.80;76.70
52787;DHT22;38661;53.152;5.846;2023-04-24T13:09:44;10.80;76.60
52787;DHT22;38661;53.152;5.846;2023-04-24T13:12:11;10.70;77.20
52787;DHT22;38661;53.152;5.846;2023-04-24T13:14:37;10.60;78.40
52787;DHT22;38661;53.152;5.846;2023-04-24T13:17:04;10.60;78.10
52787;DHT22;38661;53.152;5.846;2023-04-24T13:19:39;10.60;79.00
52787;DHT22;38661;53.152;5.846;2023-04-24T13:22:05;10.50;79.90
52787;DHT22;38661;53.152;5.846;2023-04-24T13:24:31;10.50;80.10
52787;DHT22;38661;53.152;5.846;2023-04-24T13:26:57;10.40;80.00
52787;DHT22;38661;53.152;5.846;2023-04-24T13:29:23;10.40;79.60
52787;DHT22;38661;53.152;5.846;2023-04-24T13:31:53;10.40;79.50
52787;DHT22;38661;53.152;5.846;2023-04-24T13:34:23;10.50;79.30
52787;DHT22;38661;53.152;5.846;2023-04-24T13:36:51;10.40;79.90
52787;DHT22;38661;53.152;5.846;2023-04-24T13:39:17;10.40;80.40
52787;DHT22;38661;53.152;5.846;2023-04-24T13:41:42;10.30;80.50
52787;DHT22;38661;53.152;5.846;2023-04-24T13:44:08;10.10;81.20
52787;DHT22;38661;53.152;5.846;2023-04-24T13:46:34;10.00;81.80
52787;DHT22;38661;53.152;5.846;2023-04-24T13:49:02;10.10;82.00
52787;DHT22;38661;53.152;5.846;2023-04-24T13:51:29;10.10;81.80
52787;DHT22;38661;53.152;5.846;2023-04-24T13:53:54;10.10;82.00
52787;DHT22;38661;53.152;5.846;2023-04-24T13:56:21;10.10;82.20
52787;DHT22;38661;53.152;5.846;2023-04-24T13:58:48;10.10;82.70
52787;DHT22;38661;53.152;5.846;2023-04-24T14:01:17;9.90;83.00
52787;DHT22;38661;53.152;5.846;2023-04-24T14:03:43;10.00;83.30
52787;DHT22;38661;53.152;5.846;2023-04-24T14:06:09;9.90;83.50
52787;DHT22;38661;53.152;5.846;2023-04-24T14:08:34;9.90;83.40
52787;DHT22;38661;53.152;5.846;2023-04-24T14:11:00;9.80;83.60
52787;DHT22;38661;53.152;5.846;2023-04-24T14:13:26;9.90;83.20
52787;DHT22;38661;53.152;5.846;2023-04-24T14:15:53;9.90;83.20
52787;DHT22;38661;53.152;5.846;2023-04-24T14:18:18;10.00;83.00
52787;DHT22;38661;53.152;5.846;2023-04-24T14:20:44;10.00;82.70
52787;DHT22;38661;53.152;5.846;2023-04-24T14:23:10;10.00;83.50
52787;DHT22;38661;53.152;5.846;2023-04-24T14:25:36;9.90;83.50
52787;DHT22;38661;53.152;5.846;2023-04-24T14:28:02;10.00;83.40
52787;DHT22;38661;53.152;5.846;2023-04-24T14:30:27;9.90;83.20
52787;DHT22;38661;53.152;5.846;2023-04-24T14:32:53;9.90;82.90
52787;DHT22;38661;53.152;5.846;2023-04-24T14:35:19;9.90;83.20
52787;DHT22;38661;53.152;5.846;2023-04-24T14:37:45;9.80;83.50
52787;DHT22;38661;53.152;5.846;2023-04-24T14:40:10;9.80;83.90
52787;DHT22;38661;53.152;5.846;2023-04-24T14:42:38;9.80;83.50
52787;DHT22;38661;53.152;5.846;2023-04-24T14:45:04;9.80;83.90
52787;DHT22;38661;53.152;5.846;2023-04-24T14:47:30;9.70;84.40
52787;DHT22;38661;53.152;5.846;2023-04-24T14:49:56;9.80;84.50
52787;DHT22;38661;53.152;5.846;2023-04-24T14:52:21;9.80;84.50
52787;DHT22;38661;53.152;5.846;2023-04-24T14:54:47;9.80;84.10
52787;DHT22;38661;53.152;5.846;2023-04-24T14:57:13;9.80;84.20
52787;DHT22;38661;53.152;5.846;2023-04-24T14:59:39;9.80;84.70
52787;DHT22;38661;53.152;5.846;2023-04-24T15:02:06;9.80;84.50
52787;DHT22;38661;53.152;5.846;2023-04-24T15:04:31;9.80;84.50
52787;DHT22;38661;53.152;5.846;2023-04-24T15:06:57;9.80;85.00
52787;DHT22;38661;53.152;5.846;2023-04-24T15:09:23;9.70;85.00
52787;DHT22;38661;53.152;5.846;2023-04-24T15:11:50;9.80;85.40
52787;DHT22;38661;53.152;5.846;2023-04-24T15:14:17;9.90;85.00
52787;DHT22;38661;53.152;5.846;2023-04-24T15:16:43;9.80;85.40
52787;DHT22;38661;53.152;5.846;2023-04-24T15:19:09;9.70;86.60
52787;DHT22;38661;53.152;5.846;2023-04-24T15:21:38;9.60;87.00
52787;DHT22;38661;53.152;5.846;2023-04-24T15:24:13;9.50;87.60
52787;DHT22;38661;53.152;5.846;2023-04-24T15:26:39;9.60;88.30
52787;DHT22;38661;53.152;5.846;2023-04-24T15:29:04;9.60;88.10
52787;DHT22;38661;53.152;5.846;2023-04-24T15:31:30;9.60;87.60
52787;DHT22;38661;53.152;5.846;2023-04-24T15:33:56;9.60;87.30
52787;DHT22;38661;53.152;5.846;2023-04-24T15:36:22;9.60;87.50
52787;DHT22;38661;53.152;5.846;2023-04-24T15:38:47;9.60;88.00
52787;DHT22;38661;53.152;5.846;2023-04-24T15:41:13;9.60;88.70
52787;DHT22;38661;53.152;5.846;2023-04-24T15:43:39;9.60;88.90
52787;DHT22;38661;53.152;5.846;2023-04-24T15:46:07;9.50;89.20
52787;DHT22;38661;53.152;5.846;2023-04-24T15:48:33;9.50;89.00
52787;DHT22;38661;53.152;5.846;2023-04-24T15:50:58;9.50;89.40
52787;DHT22;38661;53.152;5.846;2023-04-24T15:53:24;9.50;89.60